Airfield :







YOU CAN JOIN US ON...

 
LOGIN :

Register | Disclaimer

   EN    FR    IT 

 









Legend :    VFR   Marginal VFR   IFR   Intensive IFR   Very Intensive IFR
Visi :
Ceiling :
>= 8 km
>= 3000ft
5 to 8 km
1000 to 3000 ft
1500m to 5 km
500 to 1000 ft
800 to 1500m
200 to 500 ft
< 800m
< 200 ft
Symbols :   Thunderstorms  Fog  Heavy snow  Heavy precipitations  Wind > 20 kt






- Airport Elevation : 792 ft
- IATA code : YSC


CYSC - Sherbrooke

CURRENT METAR :
  • 071058Z AUTO 23003KT 2SM BR CLR M14/M16 A3017 RMK VIS VRB 1-3 SLP237

EXPIRED METARs :
  • 071045Z AUTO 25003KT 1 1/2SM -SN CLR M15/M16 A3017 RMK SLP237
  • 071000Z AUTO 26004KT 9SM CLR M13/M14 A3016 RMK SLP231
  • 070900Z AUTO 28005KT 9SM CLR M12/M13 A3014 RMK SLP225
  • 070800Z AUTO 30007KT 9SM CLR M10/M13 A3012 RMK SLP217

TAF TAF CYSC
Valid from the 07 at 11:00 until the 07 at 23:00 UTC


071038Z 0711/0723 26005KT P6SM SCT030
FM071600 26010KT P6SM BKN030
TEMPO 0716/0723 BKN020
BECMG 0716/0718 26010G20KT RMK FCST BASED ON AUTO OBS. NXT FCST BY 071800Z



MET'MAP, your aeronautical weather chart ! - Copyright ORBIFLY December 2007 - Disclaimer

ORBIFLY MET'MAP TEAM :

Programming & Development : Alexandra Zaïnal
Concept & original design : Baudouin d'Aumeries
Assistance for programming : Marc-Olivier Méhu
Technical & hardware support : Manuel Goepfert

Contact : metmap@orbifly.com




SOURCES & CREDITS :

   NOAA